Gasport, New York
Current Conditions -  °F | °C
As of 1:54 PM on Monday 20 Oct 2014 (Local Time) from KBUF Reporting Station
Broken Clouds Broken Clouds  
Wind Chill: 53°   Ceiling: 6500
Heat Index: 53°   Visibility: 10mi
Dew Point: 40°   Wind: 16mph
Humidity: 61%   Direction: 210°SSW
Pressure: 29.84"   Gusts: 22mph
Location:  43.2°N, 78.58°W
Report Text: KBUF 201754Z 21014G19KT 10SM FEW030 BKN065 BKN080 BKN130 12/04 A2984 RMK AO2 SLP109 T01170044 10117 20072 58018
Loading
Personal Weather Stations






























Interactive Weather Map
Tropical Storm Tracking
New forecast layout! Learn more

10-Day Weather Forecast

Advertisements
Track Severe Weather on mobile